sensor_id;sensor_type;location;lat;lon;timestamp;pressure;altitude;pressure_sealevel;temperature;humidity
67457;BME280;54319;52.038;4.640;2023-04-26T00:00:24;102097.63;;;3.32;86.24
67457;BME280;54319;52.038;4.640;2023-04-26T00:02:53;102095.66;;;3.35;86.82
67457;BME280;54319;52.038;4.640;2023-04-26T00:05:19;102094.22;;;3.30;86.47
67457;BME280;54319;52.038;4.640;2023-04-26T00:07:46;102096.34;;;3.27;86.69
67457;BME280;54319;52.038;4.640;2023-04-26T00:10:14;102093.16;;;3.22;86.50
67457;BME280;54319;52.038;4.640;2023-04-26T00:12:42;102097.00;;;3.19;86.67
67457;BME280;54319;52.038;4.640;2023-04-26T00:15:09;102087.72;;;3.12;86.31
67457;BME280;54319;52.038;4.640;2023-04-26T00:17:37;102090.81;;;3.07;86.25
67457;BME280;54319;52.038;4.640;2023-04-26T00:20:03;102087.66;;;3.02;86.02
67457;BME280;54319;52.038;4.640;2023-04-26T00:22:34;102093.44;;;2.97;86.19
67457;BME280;54319;52.038;4.640;2023-04-26T00:25:00;102099.09;;;2.94;86.66
67457;BME280;54319;52.038;4.640;2023-04-26T00:27:27;102099.50;;;2.89;86.91
67457;BME280;54319;52.038;4.640;2023-04-26T00:29:55;102083.81;;;2.83;87.04
67457;BME280;54319;52.038;4.640;2023-04-26T00:32:21;102091.19;;;2.81;87.73
67457;BME280;54319;52.038;4.640;2023-04-26T00:34:48;102088.91;;;2.77;87.92
67457;BME280;54319;52.038;4.640;2023-04-26T00:37:14;102083.78;;;2.73;88.34
67457;BME280;54319;52.038;4.640;2023-04-26T00:39:40;102093.94;;;2.70;88.59
67457;BME280;54319;52.038;4.640;2023-04-26T00:42:07;102085.41;;;2.65;88.85
67457;BME280;54319;52.038;4.640;2023-04-26T00:44:33;102090.19;;;2.61;89.10
67457;BME280;54319;52.038;4.640;2023-04-26T00:47:01;102088.72;;;2.57;89.25
67457;BME280;54319;52.038;4.640;2023-04-26T00:49:28;102094.38;;;2.54;89.35
67457;BME280;54319;52.038;4.640;2023-04-26T00:51:55;102085.97;;;2.47;89.37
67457;BME280;54319;52.038;4.640;2023-04-26T00:54:22;102089.75;;;2.44;89.28
67457;BME280;54319;52.038;4.640;2023-04-26T00:56:51;102083.75;;;2.41;89.11
67457;BME280;54319;52.038;4.640;2023-04-26T00:59:18;102084.91;;;2.38;89.27
67457;BME280;54319;52.038;4.640;2023-04-26T01:01:45;102086.88;;;2.36;89.28
67457;BME280;54319;52.038;4.640;2023-04-26T01:04:14;102078.16;;;2.33;89.18
67457;BME280;54319;52.038;4.640;2023-04-26T01:06:41;102076.59;;;2.30;89.73
67457;BME280;54319;52.038;4.640;2023-04-26T01:09:08;102080.28;;;2.29;89.91
67457;BME280;54319;52.038;4.640;2023-04-26T01:11:37;102080.66;;;2.24;89.97
67457;BME280;54319;52.038;4.640;2023-04-26T01:14:04;102081.75;;;2.22;90.09
67457;BME280;54319;52.038;4.640;2023-04-26T01:16:32;102083.84;;;2.18;90.20
67457;BME280;54319;52.038;4.640;2023-04-26T01:19:05;102077.00;;;2.14;90.29
67457;BME280;54319;52.038;4.640;2023-04-26T01:21:33;102082.50;;;2.12;90.58
67457;BME280;54319;52.038;4.640;2023-04-26T01:24:01;102087.41;;;2.07;90.58
67457;BME280;54319;52.038;4.640;2023-04-26T01:26:29;102086.44;;;2.08;91.03
67457;BME280;54319;52.038;4.640;2023-04-26T01:28:55;102089.00;;;2.10;91.56
67457;BME280;54319;52.038;4.640;2023-04-26T01:31:22;102083.50;;;2.11;91.44
67457;BME280;54319;52.038;4.640;2023-04-26T01:33:48;102090.59;;;2.12;91.36
67457;BME280;54319;52.038;4.640;2023-04-26T01:36:15;102091.72;;;2.10;91.12
67457;BME280;54319;52.038;4.640;2023-04-26T01:38:41;102091.81;;;2.08;91.00
67457;BME280;54319;52.038;4.640;2023-04-26T01:41:09;102098.28;;;2.06;91.21
67457;BME280;54319;52.038;4.640;2023-04-26T01:43:35;102089.50;;;2.03;91.33
67457;BME280;54319;52.038;4.640;2023-04-26T01:46:02;102082.53;;;2.01;91.75
67457;BME280;54319;52.038;4.640;2023-04-26T01:48:28;102079.84;;;2.01;91.60
67457;BME280;54319;52.038;4.640;2023-04-26T01:50:55;102079.13;;;1.99;91.60
67457;BME280;54319;52.038;4.640;2023-04-26T01:53:21;102079.22;;;1.97;92.04
67457;BME280;54319;52.038;4.640;2023-04-26T01:55:48;102078.50;;;1.95;92.01
67457;BME280;54319;52.038;4.640;2023-04-26T01:58:16;102084.75;;;1.96;92.25
67457;BME280;54319;52.038;4.640;2023-04-26T02:00:42;102089.25;;;1.95;92.06
67457;BME280;54319;52.038;4.640;2023-04-26T02:03:10;102084.03;;;1.94;92.30
67457;BME280;54319;52.038;4.640;2023-04-26T02:05:36;102088.44;;;1.95;92.25
67457;BME280;54319;52.038;4.640;2023-04-26T02:08:03;102090.38;;;1.93;92.34
67457;BME280;54319;52.038;4.640;2023-04-26T02:10:30;102082.44;;;1.91;92.43
67457;BME280;54319;52.038;4.640;2023-04-26T02:12:56;102083.28;;;1.92;92.58
67457;BME280;54319;52.038;4.640;2023-04-26T02:15:24;102090.50;;;1.91;92.64
67457;BME280;54319;52.038;4.640;2023-04-26T02:17:51;102085.84;;;1.93;93.07
67457;BME280;54319;52.038;4.640;2023-04-26T02:20:20;102082.06;;;1.96;93.12
67457;BME280;54319;52.038;4.640;2023-04-26T02:22:46;102083.78;;;1.97;93.50
67457;BME280;54319;52.038;4.640;2023-04-26T02:25:12;102088.19;;;1.98;93.65
67457;BME280;54319;52.038;4.640;2023-04-26T02:27:39;102087.91;;;2.01;93.78
67457;BME280;54319;52.038;4.640;2023-04-26T02:30:06;102093.06;;;2.04;93.77
67457;BME280;54319;52.038;4.640;2023-04-26T02:32:34;102089.13;;;2.08;93.95
67457;BME280;54319;52.038;4.640;2023-04-26T02:35:01;102088.75;;;2.13;94.09
67457;BME280;54319;52.038;4.640;2023-04-26T02:37:27;102086.66;;;2.16;94.01
67457;BME280;54319;52.038;4.640;2023-04-26T02:39:54;102082.72;;;2.21;93.96
67457;BME280;54319;52.038;4.640;2023-04-26T02:42:21;102079.66;;;2.25;94.07
67457;BME280;54319;52.038;4.640;2023-04-26T02:44:47;102077.59;;;2.29;93.76
67457;BME280;54319;52.038;4.640;2023-04-26T02:47:14;102080.03;;;2.32;93.79
67457;BME280;54319;52.038;4.640;2023-04-26T02:49:42;102071.69;;;2.35;93.98
67457;BME280;54319;52.038;4.640;2023-04-26T02:52:08;102072.28;;;2.39;94.07
67457;BME280;54319;52.038;4.640;2023-04-26T02:54:34;102071.16;;;2.41;94.40
67457;BME280;54319;52.038;4.640;2023-04-26T02:57:01;102064.81;;;2.42;94.34
67457;BME280;54319;52.038;4.640;2023-04-26T02:59:28;102075.56;;;2.42;94.47
67457;BME280;54319;52.038;4.640;2023-04-26T03:01:55;102072.00;;;2.42;94.44
67457;BME280;54319;52.038;4.640;2023-04-26T03:04:23;102065.06;;;2.39;94.09
67457;BME280;54319;52.038;4.640;2023-04-26T03:06:50;102067.03;;;2.37;94.06
67457;BME280;54319;52.038;4.640;2023-04-26T03:09:17;102066.31;;;2.35;94.20
67457;BME280;54319;52.038;4.640;2023-04-26T03:11:43;102066.56;;;2.32;94.36
67457;BME280;54319;52.038;4.640;2023-04-26T03:14:10;102063.13;;;2.30;94.20
67457;BME280;54319;52.038;4.640;2023-04-26T03:16:39;102063.97;;;2.30;94.35
67457;BME280;54319;52.038;4.640;2023-04-26T03:19:06;102058.59;;;2.30;94.54
67457;BME280;54319;52.038;4.640;2023-04-26T03:21:32;102062.16;;;2.31;95.00
67457;BME280;54319;52.038;4.640;2023-04-26T03:24:00;102061.44;;;2.29;95.33
67457;BME280;54319;52.038;4.640;2023-04-26T03:26:26;102063.13;;;2.30;95.52
67457;BME280;54319;52.038;4.640;2023-04-26T03:28:53;102062.16;;;2.31;95.44
67457;BME280;54319;52.038;4.640;2023-04-26T03:31:19;102059.22;;;2.34;95.70
67457;BME280;54319;52.038;4.640;2023-04-26T03:33:46;102065.31;;;2.36;95.82
67457;BME280;54319;52.038;4.640;2023-04-26T03:36:13;102053.81;;;2.34;95.70
67457;BME280;54319;52.038;4.640;2023-04-26T03:38:39;102056.50;;;2.34;95.55
67457;BME280;54319;52.038;4.640;2023-04-26T03:41:08;102053.94;;;2.33;95.44
67457;BME280;54319;52.038;4.640;2023-04-26T03:43:34;102052.22;;;2.31;95.60
67457;BME280;54319;52.038;4.640;2023-04-26T03:46:01;102056.50;;;2.34;95.57
67457;BME280;54319;52.038;4.640;2023-04-26T03:48:27;102063.59;;;2.35;95.49
67457;BME280;54319;52.038;4.640;2023-04-26T03:50:54;102051.25;;;2.33;95.39
67457;BME280;54319;52.038;4.640;2023-04-26T03:53:20;102045.38;;;2.27;95.42
67457;BME280;54319;52.038;4.640;2023-04-26T03:55:46;102046.38;;;2.26;95.14
67457;BME280;54319;52.038;4.640;2023-04-26T03:58:14;102040.38;;;2.23;95.00
67457;BME280;54319;52.038;4.640;2023-04-26T04:00:41;102039.91;;;2.17;95.14
67457;BME280;54319;52.038;4.640;2023-04-26T04:03:07;102043.84;;;2.13;95.15
67457;BME280;54319;52.038;4.640;2023-04-26T04:05:35;102037.88;;;2.10;94.95
67457;BME280;54319;52.038;4.640;2023-04-26T04:08:01;102040.78;;;2.07;95.25
67457;BME280;54319;52.038;4.640;2023-04-26T04:10:28;102048.28;;;2.03;95.17
67457;BME280;54319;52.038;4.640;2023-04-26T04:12:54;102043.16;;;2.00;95.64
67457;BME280;54319;52.038;4.640;2023-04-26T04:15:22;102045.22;;;1.96;95.49
67457;BME280;54319;52.038;4.640;2023-04-26T04:17:48;102048.91;;;1.95;95.72
67457;BME280;54319;52.038;4.640;2023-04-26T04:20:15;102042.53;;;1.96;95.98
67457;BME280;54319;52.038;4.640;2023-04-26T04:22:41;102055.63;;;2.01;96.27
67457;BME280;54319;52.038;4.640;2023-04-26T04:25:08;102053.41;;;2.06;96.71
67457;BME280;54319;52.038;4.640;2023-04-26T04:27:35;102047.41;;;2.14;96.85
67457;BME280;54319;52.038;4.640;2023-04-26T04:30:02;102060.19;;;2.22;97.32
67457;BME280;54319;52.038;4.640;2023-04-26T04:32:32;102057.03;;;2.28;97.48
67457;BME280;54319;52.038;4.640;2023-04-26T04:34:59;102053.81;;;2.34;97.61
67457;BME280;54319;52.038;4.640;2023-04-26T04:37:26;102062.22;;;2.41;97.45
67457;BME280;54319;52.038;4.640;2023-04-26T04:39:52;102058.28;;;2.45;97.69
67457;BME280;54319;52.038;4.640;2023-04-26T04:42:19;102062.31;;;2.51;97.52
67457;BME280;54319;52.038;4.640;2023-04-26T04:44:45;102058.53;;;2.53;97.49
67457;BME280;54319;52.038;4.640;2023-04-26T04:47:12;102061.94;;;2.55;97.33
67457;BME280;54319;52.038;4.640;2023-04-26T04:49:40;102064.38;;;2.58;96.98
67457;BME280;54319;52.038;4.640;2023-04-26T04:52:08;102067.91;;;2.59;97.01
67457;BME280;54319;52.038;4.640;2023-04-26T04:54:35;102062.41;;;2.60;97.05
67457;BME280;54319;52.038;4.640;2023-04-26T04:57:01;102062.41;;;2.60;96.77
67457;BME280;54319;52.038;4.640;2023-04-26T04:59:28;102059.81;;;2.59;96.67
67457;BME280;54319;52.038;4.640;2023-04-26T05:01:55;102064.22;;;2.60;96.79
67457;BME280;54319;52.038;4.640;2023-04-26T05:04:22;102067.78;;;2.60;96.74
67457;BME280;54319;52.038;4.640;2023-04-26T05:06:50;102059.56;;;2.62;97.01
67457;BME280;54319;52.038;4.640;2023-04-26T05:09:16;102066.66;;;2.63;96.73
67457;BME280;54319;52.038;4.640;2023-04-26T05:11:42;102060.06;;;2.67;96.96
67457;BME280;54319;52.038;4.640;2023-04-26T05:14:09;102058.81;;;2.71;97.18
67457;BME280;54319;52.038;4.640;2023-04-26T05:16:35;102066.47;;;2.76;97.28
67457;BME280;54319;52.038;4.640;2023-04-26T05:19:02;102058.84;;;2.81;97.06
67457;BME280;54319;52.038;4.640;2023-04-26T05:21:29;102069.97;;;2.88;97.26
67457;BME280;54319;52.038;4.640;2023-04-26T05:23:57;102059.53;;;2.95;97.14
67457;BME280;54319;52.038;4.640;2023-04-26T05:26:24;102063.28;;;3.03;97.14
67457;BME280;54319;52.038;4.640;2023-04-26T05:28:50;102056.09;;;3.14;97.36
67457;BME280;54319;52.038;4.640;2023-04-26T05:31:16;102064.09;;;3.25;97.57
67457;BME280;54319;52.038;4.640;2023-04-26T05:33:44;102066.13;;;3.33;97.18
67457;BME280;54319;52.038;4.640;2023-04-26T05:36:10;102070.00;;;3.40;97.18
67457;BME280;54319;52.038;4.640;2023-04-26T05:38:36;102066.47;;;3.50;97.50
67457;BME280;54319;52.038;4.640;2023-04-26T05:41:04;102070.22;;;3.58;97.62
67457;BME280;54319;52.038;4.640;2023-04-26T05:43:31;102066.69;;;3.68;97.78
67457;BME280;54319;52.038;4.640;2023-04-26T05:45:57;102077.41;;;3.79;97.73
67457;BME280;54319;52.038;4.640;2023-04-26T05:48:24;102079.00;;;3.91;97.38
67457;BME280;54319;52.038;4.640;2023-04-26T05:50:51;102083.28;;;4.04;96.36
67457;BME280;54319;52.038;4.640;2023-04-26T05:53:18;102075.53;;;4.20;96.17
67457;BME280;54319;52.038;4.640;2023-04-26T05:55:44;102073.13;;;4.37;95.67
67457;BME280;54319;52.038;4.640;2023-04-26T05:58:12;102079.09;;;4.51;94.66
67457;BME280;54319;52.038;4.640;2023-04-26T06:00:39;102076.69;;;4.67;93.59
67457;BME280;54319;52.038;4.640;2023-04-26T06:03:05;102082.09;;;4.77;91.90
67457;BME280;54319;52.038;4.640;2023-04-26T06:05:32;102091.16;;;4.86;90.66
67457;BME280;54319;52.038;4.640;2023-04-26T06:07:58;102082.47;;;5.02;89.89
67457;BME280;54319;52.038;4.640;2023-04-26T06:10:25;102090.88;;;5.18;89.93
67457;BME280;54319;52.038;4.640;2023-04-26T06:12:52;102094.09;;;5.32;88.87
67457;BME280;54319;52.038;4.640;2023-04-26T06:15:20;102093.78;;;5.45;87.89
67457;BME280;54319;52.038;4.640;2023-04-26T06:17:46;102099.28;;;5.53;86.58
67457;BME280;54319;52.038;4.640;2023-04-26T06:20:12;102106.28;;;5.56;81.86
67457;BME280;54319;52.038;4.640;2023-04-26T06:22:39;102106.53;;;5.62;82.69
67457;BME280;54319;52.038;4.640;2023-04-26T06:25:06;102095.13;;;5.69;81.09
67457;BME280;54319;52.038;4.640;2023-04-26T06:27:33;102102.78;;;5.73;79.75
67457;BME280;54319;52.038;4.640;2023-04-26T06:29:59;102104.34;;;5.76;80.69
67457;BME280;54319;52.038;4.640;2023-04-26T06:32:27;102112.16;;;5.79;78.58
67457;BME280;54319;52.038;4.640;2023-04-26T06:34:54;102106.16;;;5.85;78.02
67457;BME280;54319;52.038;4.640;2023-04-26T06:37:20;102033.38;;;5.44;77.83
67457;BME280;54319;52.038;4.640;2023-04-26T06:39:48;102112.06;;;5.99;78.14
67457;BME280;54319;52.038;4.640;2023-04-26T06:42:14;102115.19;;;6.04;77.50
67457;BME280;54319;52.038;4.640;2023-04-26T06:44:41;102118.72;;;6.14;78.62
67457;BME280;54319;52.038;4.640;2023-04-26T06:47:07;102114.97;;;6.25;76.22
67457;BME280;54319;52.038;4.640;2023-04-26T06:49:36;102112.88;;;6.37;74.91
67457;BME280;54319;52.038;4.640;2023-04-26T06:52:03;102110.56;;;6.60;75.68
67457;BME280;54319;52.038;4.640;2023-04-26T06:54:30;102107.16;;;6.76;73.85
67457;BME280;54319;52.038;4.640;2023-04-26T06:56:57;102099.16;;;6.93;73.75
67457;BME280;54319;52.038;4.640;2023-04-26T06:59:24;102101.63;;;7.04;73.02
67457;BME280;54319;52.038;4.640;2023-04-26T07:01:50;102103.75;;;7.19;70.89
67457;BME280;54319;52.038;4.640;2023-04-26T07:04:16;102106.47;;;7.19;70.98
67457;BME280;54319;52.038;4.640;2023-04-26T07:06:45;102105.91;;;7.33;70.57
67457;BME280;54319;52.038;4.640;2023-04-26T07:09:12;102110.47;;;7.33;69.18
67457;BME280;54319;52.038;4.640;2023-04-26T07:11:38;102099.56;;;7.24;68.80
67457;BME280;54319;52.038;4.640;2023-04-26T07:14:09;102105.63;;;7.18;68.84
67457;BME280;54319;52.038;4.640;2023-04-26T07:16:35;102103.06;;;7.17;69.04
67457;BME280;54319;52.038;4.640;2023-04-26T07:19:02;102108.66;;;7.15;68.28
67457;BME280;54319;52.038;4.640;2023-04-26T07:21:30;102111.28;;;7.25;68.70
67457;BME280;54319;52.038;4.640;2023-04-26T07:23:58;102108.72;;;7.23;68.33
67457;BME280;54319;52.038;4.640;2023-04-26T07:26:24;102126.88;;;7.23;70.21
67457;BME280;54319;52.038;4.640;2023-04-26T07:28:51;102125.66;;;6.99;71.77
67457;BME280;54319;52.038;4.640;2023-04-26T07:31:18;102126.13;;;6.76;73.85
67457;BME280;54319;52.038;4.640;2023-04-26T07:33:44;102124.75;;;6.72;74.10
67457;BME280;54319;52.038;4.640;2023-04-26T07:36:11;102127.00;;;6.59;74.03
67457;BME280;54319;52.038;4.640;2023-04-26T07:38:38;102133.25;;;6.59;75.77
67457;BME280;54319;52.038;4.640;2023-04-26T07:41:06;102126.63;;;6.54;74.37
67457;BME280;54319;52.038;4.640;2023-04-26T07:43:33;102128.06;;;6.48;74.29
67457;BME280;54319;52.038;4.640;2023-04-26T07:45:59;102118.69;;;6.42;75.79
67457;BME280;54319;52.038;4.640;2023-04-26T07:48:26;102124.59;;;6.37;74.66
67457;BME280;54319;52.038;4.640;2023-04-26T07:50:52;102132.66;;;6.47;75.50
67457;BME280;54319;52.038;4.640;2023-04-26T07:53:19;102126.31;;;6.57;75.70
67457;BME280;54319;52.038;4.640;2023-04-26T07:55:46;102130.78;;;6.66;74.41
67457;BME280;54319;52.038;4.640;2023-04-26T07:58:14;102128.47;;;6.71;75.18
67457;BME280;54319;52.038;4.640;2023-04-26T08:03:13;102051.09;;;6.41;69.14
67457;BME280;54319;52.038;4.640;2023-04-26T08:05:42;102131.47;;;7.04;69.10
67457;BME280;54319;52.038;4.640;2023-04-26T08:08:08;102132.41;;;7.13;65.87
67457;BME280;54319;52.038;4.640;2023-04-26T08:10:35;102112.09;;;6.99;63.28
67457;BME280;54319;52.038;4.640;2023-04-26T08:13:02;102141.66;;;7.29;62.79
67457;BME280;54319;52.038;4.640;2023-04-26T08:15:29;102135.66;;;7.43;62.46
67457;BME280;54319;52.038;4.640;2023-04-26T08:17:56;102140.59;;;7.48;63.18
67457;BME280;54319;52.038;4.640;2023-04-26T08:20:24;102086.03;;;7.33;63.29
67457;BME280;54319;52.038;4.640;2023-04-26T08:22:54;102139.34;;;7.60;63.76
67457;BME280;54319;52.038;4.640;2023-04-26T08:25:21;102141.38;;;7.58;64.20
67457;BME280;54319;52.038;4.640;2023-04-26T08:27:48;102137.88;;;7.74;62.39
67457;BME280;54319;52.038;4.640;2023-04-26T08:30:15;102125.63;;;7.70;62.08
67457;BME280;54319;52.038;4.640;2023-04-26T08:32:42;102092.88;;;7.72;61.69
67457;BME280;54319;52.038;4.640;2023-04-26T08:35:09;102139.81;;;7.90;63.14
67457;BME280;54319;52.038;4.640;2023-04-26T08:37:37;102106.47;;;7.72;61.18
67457;BME280;54319;52.038;4.640;2023-04-26T08:40:05;102078.94;;;7.66;65.45
67457;BME280;54319;52.038;4.640;2023-04-26T08:42:38;102129.72;;;8.09;61.91
67457;BME280;54319;52.038;4.640;2023-04-26T08:45:07;102123.50;;;8.25;62.56
67457;BME280;54319;52.038;4.640;2023-04-26T08:47:39;102131.97;;;8.22;60.35
67457;BME280;54319;52.038;4.640;2023-04-26T08:50:10;102124.88;;;8.29;62.18
67457;BME280;54319;52.038;4.640;2023-04-26T08:52:41;102108.19;;;8.24;62.63
67457;BME280;54319;52.038;4.640;2023-04-26T08:55:09;102096.13;;;8.26;60.58
67457;BME280;54319;52.038;4.640;2023-04-26T08:57:37;102127.34;;;8.57;60.27
67457;BME280;54319;52.038;4.640;2023-04-26T09:00:07;102098.78;;;8.61;59.26
67457;BME280;54319;52.038;4.640;2023-04-26T09:02:36;102077.53;;;8.57;58.36
67457;BME280;54319;52.038;4.640;2023-04-26T09:05:07;102132.13;;;8.88;59.00
67457;BME280;54319;52.038;4.640;2023-04-26T09:07:34;102131.97;;;8.90;60.39
67457;BME280;54319;52.038;4.640;2023-04-26T09:10:07;102127.53;;;9.05;59.77
67457;BME280;54319;52.038;4.640;2023-04-26T09:12:34;102134.50;;;9.33;58.60
67457;BME280;54319;52.038;4.640;2023-04-26T09:15:01;102114.78;;;9.14;56.86
67457;BME280;54319;52.038;4.640;2023-04-26T09:17:30;102129.22;;;9.39;55.98
67457;BME280;54319;52.038;4.640;2023-04-26T09:19:58;102136.34;;;9.40;56.67
67457;BME280;54319;52.038;4.640;2023-04-26T09:22:32;102136.34;;;9.40;57.24
67457;BME280;54319;52.038;4.640;2023-04-26T09:24:59;102121.75;;;9.25;57.95
67457;BME280;54319;52.038;4.640;2023-04-26T09:27:33;102127.00;;;9.26;56.67
67457;BME280;54319;52.038;4.640;2023-04-26T09:30:04;102129.72;;;9.43;56.21
67457;BME280;54319;52.038;4.640;2023-04-26T09:32:48;102133.16;;;9.29;55.09
67457;BME280;54319;52.038;4.640;2023-04-26T09:35:24;102131.63;;;9.09;56.14
67457;BME280;54319;52.038;4.640;2023-04-26T09:37:52;102134.84;;;9.13;56.46
67457;BME280;54319;52.038;4.640;2023-04-26T09:40:20;102141.81;;;8.91;57.74
67457;BME280;54319;52.038;4.640;2023-04-26T09:42:48;102137.75;;;8.95;59.38
67457;BME280;54319;52.038;4.640;2023-04-26T09:45:22;102135.19;;;8.77;59.97
67457;BME280;54319;52.038;4.640;2023-04-26T09:47:48;102115.28;;;8.68;61.03
67457;BME280;54319;52.038;4.640;2023-04-26T09:50:25;102137.72;;;8.62;62.01
67457;BME280;54319;52.038;4.640;2023-04-26T09:52:52;102069.94;;;8.17;61.37
67457;BME280;54319;52.038;4.640;2023-04-26T09:55:25;102116.06;;;8.44;62.17
67457;BME280;54319;52.038;4.640;2023-04-26T09:57:55;102140.50;;;8.35;63.45
67457;BME280;54319;52.038;4.640;2023-04-26T10:00:23;102137.97;;;8.34;63.48
67457;BME280;54319;52.038;4.640;2023-04-26T10:02:51;102127.22;;;8.24;60.90
67457;BME280;54319;52.038;4.640;2023-04-26T10:05:18;102126.59;;;8.38;62.18
67457;BME280;54319;52.038;4.640;2023-04-26T10:07:46;102130.56;;;8.52;61.13
67457;BME280;54319;52.038;4.640;2023-04-26T10:10:13;102125.47;;;8.66;60.75
67457;BME280;54319;52.038;4.640;2023-04-26T10:12:40;102131.25;;;8.63;57.52
67457;BME280;54319;52.038;4.640;2023-04-26T10:15:09;102133.13;;;8.62;57.45
67457;BME280;54319;52.038;4.640;2023-04-26T10:17:36;102117.66;;;8.71;57.33
67457;BME280;54319;52.038;4.640;2023-04-26T10:20:05;102125.34;;;8.92;58.43
67457;BME280;54319;52.038;4.640;2023-04-26T10:22:38;102130.59;;;9.19;56.58
67457;BME280;54319;52.038;4.640;2023-04-26T10:25:08;102121.06;;;9.31;53.74
67457;BME280;54319;52.038;4.640;2023-04-26T10:27:49;102118.34;;;9.23;55.70
67457;BME280;54319;52.038;4.640;2023-04-26T10:30:19;102128.19;;;9.49;53.87
67457;BME280;54319;52.038;4.640;2023-04-26T10:33:14;102134.44;;;9.58;53.39
67457;BME280;54319;52.038;4.640;2023-04-26T10:36:01;102119.47;;;9.53;50.87
67457;BME280;54319;52.038;4.640;2023-04-26T10:38:28;102095.78;;;9.62;53.04
67457;BME280;54319;52.038;4.640;2023-04-26T10:40:55;102116.84;;;9.77;52.12
67457;BME280;54319;52.038;4.640;2023-04-26T10:43:42;102111.44;;;9.68;50.86
67457;BME280;54319;52.038;4.640;2023-04-26T10:46:34;102127.13;;;9.58;51.84
67457;BME280;54319;52.038;4.640;2023-04-26T10:49:14;102093.56;;;9.66;52.52
67457;BME280;54319;52.038;4.640;2023-04-26T10:52:10;102113.28;;;9.76;51.13
67457;BME280;54319;52.038;4.640;2023-04-26T10:54:54;102102.81;;;10.28;52.23
67457;BME280;54319;52.038;4.640;2023-04-26T10:57:23;102100.78;;;10.62;51.39
67457;BME280;54319;52.038;4.640;2023-04-26T11:00:17;102072.88;;;10.51;50.45
67457;BME280;54319;52.038;4.640;2023-04-26T11:02:52;102100.16;;;10.51;47.72
67457;BME280;54319;52.038;4.640;2023-04-26T11:05:50;102098.94;;;10.77;47.02
67457;BME280;54319;52.038;4.640;2023-04-26T11:08:18;102088.78;;;11.09;46.08
67457;BME280;54319;52.038;4.640;2023-04-26T11:10:50;102097.28;;;11.29;47.96
67457;BME280;54319;52.038;4.640;2023-04-26T11:13:17;102094.31;;;11.39;49.10
67457;BME280;54319;52.038;4.640;2023-04-26T11:15:45;102085.81;;;11.79;46.73
67457;BME280;54319;52.038;4.640;2023-04-26T11:18:13;102072.69;;;12.05;45.42
67457;BME280;54319;52.038;4.640;2023-04-26T11:20:44;102083.66;;;11.75;45.33
67457;BME280;54319;52.038;4.640;2023-04-26T11:23:10;102059.13;;;11.66;45.32
67457;BME280;54319;52.038;4.640;2023-04-26T11:25:38;102078.25;;;11.96;48.55
67457;BME280;54319;52.038;4.640;2023-04-26T11:28:05;102004.53;;;11.88;44.26
67457;BME280;54319;52.038;4.640;2023-04-26T11:30:32;102047.25;;;11.59;45.65
67457;BME280;54319;52.038;4.640;2023-04-26T11:32:59;102080.63;;;11.69;46.62
67457;BME280;54319;52.038;4.640;2023-04-26T11:35:27;102079.31;;;11.50;45.79
67457;BME280;54319;52.038;4.640;2023-04-26T11:37:57;102078.94;;;11.38;46.01
67457;BME280;54319;52.038;4.640;2023-04-26T11:40:29;102081.19;;;11.50;46.76
67457;BME280;54319;52.038;4.640;2023-04-26T11:43:00;102069.28;;;11.12;49.94
67457;BME280;54319;52.038;4.640;2023-04-26T11:45:27;102081.72;;;11.00;50.92
67457;BME280;54319;52.038;4.640;2023-04-26T11:47:54;102080.69;;;10.78;51.20
67457;BME280;54319;52.038;4.640;2023-04-26T11:50:22;102041.22;;;10.65;50.39
67457;BME280;54319;52.038;4.640;2023-04-26T11:52:54;102072.81;;;10.98;50.30
67457;BME280;54319;52.038;4.640;2023-04-26T11:55:27;102024.72;;;10.82;50.71
67457;BME280;54319;52.038;4.640;2023-04-26T11:57:53;102033.88;;;11.34;49.92
67457;BME280;54319;52.038;4.640;2023-04-26T12:00:21;102078.53;;;11.71;48.18
67457;BME280;54319;52.038;4.640;2023-04-26T12:02:49;102023.63;;;11.36;46.40
67457;BME280;54319;52.038;4.640;2023-04-26T12:05:22;102075.88;;;11.93;46.65
67457;BME280;54319;52.038;4.640;2023-04-26T12:07:50;102075.38;;;12.56;46.69
67457;BME280;54319;52.038;4.640;2023-04-26T12:10:22;102080.19;;;12.76;46.83
67457;BME280;54319;52.038;4.640;2023-04-26T12:12:50;102068.97;;;12.71;43.40
67457;BME280;54319;52.038;4.640;2023-04-26T12:15:18;102079.22;;;13.12;43.67
67457;BME280;54319;52.038;4.640;2023-04-26T12:17:52;102083.78;;;12.77;41.89
67457;BME280;54319;52.038;4.640;2023-04-26T12:20:25;102078.94;;;12.35;45.29
67457;BME280;54319;52.038;4.640;2023-04-26T12:23:03;102059.88;;;11.90;46.13
67457;BME280;54319;52.038;4.640;2023-04-26T12:25:32;102072.69;;;12.05;45.79
67457;BME280;54319;52.038;4.640;2023-04-26T12:28:00;101989.94;;;11.81;44.20
67457;BME280;54319;52.038;4.640;2023-04-26T12:30:27;102078.28;;;12.55;43.02
67457;BME280;54319;52.038;4.640;2023-04-26T12:32:56;102085.88;;;12.74;45.13
67457;BME280;54319;52.038;4.640;2023-04-26T12:35:23;102071.78;;;13.06;43.86
67457;BME280;54319;52.038;4.640;2023-04-26T12:37:50;102083.88;;;13.18;43.78
67457;BME280;54319;52.038;4.640;2023-04-26T12:40:18;102087.47;;;12.91;43.45
67457;BME280;54319;52.038;4.640;2023-04-26T12:42:47;102082.00;;;12.47;43.82
67457;BME280;54319;52.038;4.640;2023-04-26T12:45:15;102089.28;;;12.18;43.79
67457;BME280;54319;52.038;4.640;2023-04-26T12:47:42;102080.81;;;11.83;44.73
67457;BME280;54319;52.038;4.640;2023-04-26T12:50:09;102073.31;;;12.22;45.74
67457;BME280;54319;52.038;4.640;2023-04-26T12:52:37;102070.44;;;12.30;43.31
67457;BME280;54319;52.038;4.640;2023-04-26T12:55:05;102080.63;;;12.36;43.55
67457;BME280;54319;52.038;4.640;2023-04-26T12:57:32;102084.25;;;12.22;43.08
67457;BME280;54319;52.038;4.640;2023-04-26T13:00:00;102070.81;;;11.90;44.56
67457;BME280;54319;52.038;4.640;2023-04-26T13:02:27;102075.75;;;12.32;44.96
67457;BME280;54319;52.038;4.640;2023-04-26T13:04:53;102083.13;;;12.74;44.05